Time;durP1;ratioP1;P1;durP2;ratioP2;P2;SDS_P1;SDS_P2;PMS_P1;PMS_P2;Temp;Humidity;BMP_temperature;BMP_pressure;BME280_temperature;BME280_humidity;BME280_pressure;Samples;Min_cycle;Max_cycle;Signal;HPM_P1;HPM_P2
2022/06/27 00:00:09;;;;;;;2.35;0.68;;;17.00;99.90;;;;;;5094428;28;20020;-74
2022/06/27 00:02:37;;;;;;;4.53;0.70;;;16.90;99.90;;;;;;5093899;28;20024;-74
2022/06/27 00:05:03;;;;;;;2.70;0.50;;;17.00;99.90;;;;;;5093850;28;20476;-74
2022/06/27 00:07:29;;;;;;;4.18;0.20;;;17.00;99.90;;;;;;5093616;28;20073;-74
2022/06/27 00:09:54;;;;;;;3.38;0.38;;;17.00;99.90;;;;;;5093735;28;20036;-73
2022/06/27 00:12:20;;;;;;;2.72;0.52;;;17.00;99.90;;;;;;5075652;28;20023;-74
2022/06/27 00:14:45;;;;;;;1.50;0.52;;;17.00;99.90;;;;;;5093680;28;20465;-74
2022/06/27 00:17:11;;;;;;;1.23;0.80;;;17.00;99.90;;;;;;5093523;28;20032;-74
2022/06/27 00:19:37;;;;;;;5.47;0.95;;;17.10;99.90;;;;;;5093632;28;20074;-74
2022/06/27 00:22:04;;;;;;;2.88;0.93;;;17.10;99.90;;;;;;5093743;28;20103;-74
2022/06/27 00:24:30;;;;;;;4.78;1.38;;;17.10;99.90;;;;;;5093440;28;20028;-74
2022/06/27 00:26:55;;;;;;;2.63;0.60;;;17.10;99.90;;;;;;5075220;28;20084;-74
2022/06/27 00:29:21;;;;;;;4.40;1.10;;;17.10;99.90;;;;;;5093710;28;20020;-74
2022/06/27 00:31:47;;;;;;;6.80;0.70;;;17.10;99.90;;;;;;5093372;28;20016;-74
2022/06/27 00:34:12;;;;;;;3.40;1.00;;;17.00;99.90;;;;;;5075264;28;20020;-74
2022/06/27 00:36:38;;;;;;;2.28;1.05;;;17.00;99.90;;;;;;5075281;28;20500;-74
2022/06/27 00:39:04;;;;;;;2.25;1.20;;;17.10;99.90;;;;;;5075332;28;20032;-74
2022/06/27 00:41:29;;;;;;;2.63;1.08;;;17.10;99.90;;;;;;5093326;28;20392;-74
2022/06/27 00:43:55;;;;;;;2.22;0.90;;;17.00;99.90;;;;;;5093260;28;20405;-74
2022/06/27 00:46:20;;;;;;;2.33;1.20;;;17.00;99.90;;;;;;5093109;28;20040;-74
2022/06/27 00:48:46;;;;;;;2.05;1.20;;;17.00;99.90;;;;;;5093159;28;20016;-74
2022/06/27 00:51:12;;;;;;;5.22;1.38;;;17.00;99.90;;;;;;5093399;28;20024;-74
2022/06/27 00:53:38;;;;;;;2.13;1.35;;;17.00;99.90;;;;;;5093742;28;20480;-74
2022/06/27 00:56:04;;;;;;;5.30;1.17;;;17.00;99.90;;;;;;5093424;28;20032;-74
2022/06/27 00:58:30;;;;;;;3.30;1.10;;;17.00;99.90;;;;;;5093050;28;20081;-74
2022/06/27 01:00:56;;;;;;;5.57;1.23;;;17.00;99.90;;;;;;5093089;28;20020;-74
2022/06/27 01:03:21;;;;;;;3.42;0.95;;;17.00;99.90;;;;;;5093155;28;20050;-74
2022/06/27 01:05:53;;;;;;;3.10;1.05;;;16.90;99.90;;;;;;5092932;28;20035;-74
2022/06/27 01:08:20;;;;;;;2.38;1.00;;;16.90;99.90;;;;;;5092924;28;20052;-74
2022/06/27 01:10:47;;;;;;;4.47;1.10;;;16.90;99.90;;;;;;5074945;28;20031;-74
2022/06/27 01:13:13;;;;;;;3.35;0.98;;;16.80;99.90;;;;;;5093021;28;20385;-74
2022/06/27 01:15:40;;;;;;;2.55;0.93;;;16.80;99.90;;;;;;5092982;28;20024;-74
2022/06/27 01:18:07;;;;;;;4.43;1.27;;;16.80;99.90;;;;;;5094008;28;20097;-74
2022/06/27 01:20:33;;;;;;;2.45;0.95;;;16.80;99.90;;;;;;5093135;28;20385;-74
2022/06/27 01:22:59;;;;;;;3.03;0.75;;;16.70;99.90;;;;;;5092896;28;20024;-74
2022/06/27 01:25:25;;;;;;;5.20;1.33;;;16.70;99.90;;;;;;5093151;28;20024;-74
2022/06/27 01:27:51;;;;;;;3.72;0.77;;;16.70;99.90;;;;;;5093403;28;20484;-74
2022/06/27 01:30:17;;;;;;;4.32;1.52;;;16.70;99.90;;;;;;5092995;28;20077;-74
2022/06/27 01:32:42;;;;;;;3.28;0.75;;;16.70;99.90;;;;;;5074722;28;20477;-74
2022/06/27 01:35:08;;;;;;;1.30;0.60;;;16.70;99.90;;;;;;5095027;28;20115;-74
2022/06/27 01:37:34;;;;;;;1.42;0.35;;;16.70;99.90;;;;;;5096736;28;20074;-74
2022/06/27 01:40:00;;;;;;;3.03;0.80;;;16.70;99.90;;;;;;5096694;28;20020;-74
2022/06/27 01:42:27;;;;;;;4.32;0.50;;;16.70;99.90;;;;;;5096595;28;20020;-74
2022/06/27 01:44:53;;;;;;;2.92;0.98;;;16.70;99.90;;;;;;5096847;28;20084;-74
2022/06/27 01:47:18;;;;;;;2.58;0.70;;;16.70;99.90;;;;;;5096370;28;20385;-74
2022/06/27 01:49:44;;;;;;;5.82;0.88;;;16.80;99.90;;;;;;5096349;28;20016;-74
2022/06/27 01:52:14;;;;;;;3.95;1.05;;;16.70;99.90;;;;;;5096635;28;20020;-74
2022/06/27 01:54:40;;;;;;;1.48;0.93;;;16.80;99.90;;;;;;5096312;28;20497;-74
2022/06/27 01:57:06;;;;;;;3.05;0.80;;;16.80;99.90;;;;;;5096705;28;20024;-74
2022/06/27 01:59:32;;;;;;;1.73;0.80;;;16.80;99.90;;;;;;5078105;28;20028;-74
2022/06/27 02:01:59;;;;;;;2.20;0.40;;;16.80;99.90;;;;;;5096213;28;20477;-74
2022/06/27 02:04:26;;;;;;;3.03;0.55;;;16.80;99.90;;;;;;5096140;28;20495;-74
2022/06/27 02:06:52;;;;;;;3.80;0.88;;;16.90;99.90;;;;;;5095415;28;20028;-74
2022/06/27 02:09:18;;;;;;;5.72;1.48;;;16.80;99.90;;;;;;5077827;28;20447;-75
2022/06/27 02:11:46;;;;;;;2.67;0.88;;;16.80;99.90;;;;;;5077909;28;20095;-74
2022/06/27 02:14:12;;;;;;;3.03;1.42;;;16.80;99.90;;;;;;5096285;28;20062;-74
2022/06/27 02:16:40;;;;;;;3.58;1.40;;;16.80;99.90;;;;;;5096004;28;20477;-76
2022/06/27 02:19:06;;;;;;;1.65;0.40;;;16.80;99.90;;;;;;5077720;28;20077;-76
2022/06/27 02:21:31;;;;;;;4.13;1.35;;;16.80;99.90;;;;;;5096112;28;20036;-76
2022/06/27 02:23:57;;;;;;;2.67;0.85;;;16.70;99.90;;;;;;5095765;28;20367;-75
2022/06/27 02:26:27;;;;;;;2.92;0.90;;;16.70;99.90;;;;;;5077565;28;20073;-75
2022/06/27 02:28:57;;;;;;;5.82;1.38;;;16.70;99.90;;;;;;5079880;28;20024;-74
2022/06/27 02:31:23;;;;;;;3.10;1.17;;;16.70;99.90;;;;;;5080972;28;20028;-74
2022/06/27 02:33:51;;;;;;;2.22;1.10;;;17.40;99.90;;;;;;5095868;28;20102;-76
2022/06/27 02:36:20;;;;;;;3.65;1.08;;;16.50;99.90;;;;;;5095429;28;20104;-76
2022/06/27 02:38:47;;;;;;;4.15;1.38;;;16.50;99.90;;;;;;5095336;28;20043;-75
2022/06/27 02:41:16;;;;;;;7.85;1.40;;;16.40;99.90;;;;;;5095630;28;20034;-76
2022/06/27 02:43:44;;;;;;;4.82;0.57;;;16.50;99.90;;;;;;5077184;28;20480;-75
2022/06/27 02:46:10;;;;;;;;;;;16.50;99.90;;;;;;5094890;28;20054;-75
2022/06/27 02:48:37;;;;;;;6.38;1.42;;;16.40;99.90;;;;;;5095507;28;20307;-75
2022/06/27 02:51:09;;;;;;;8.30;1.20;;;16.40;99.90;;;;;;5095130;28;20024;-76
2022/06/27 02:53:46;;;;;;;3.33;1.35;;;16.40;99.90;;;;;;5077082;28;20044;-75
2022/06/27 02:56:16;;;;;;;3.53;1.17;;;16.40;99.90;;;;;;5095168;28;20032;-75
2022/06/27 02:59:03;;;;;;;4.25;0.90;;;16.40;99.90;;;;;;5076834;28;20032;-76
2022/06/27 03:01:31;;;;;;;2.72;0.90;;;16.30;99.90;;;;;;5095008;28;20103;-75
2022/06/27 03:03:59;;;;;;;1.80;1.05;;;16.40;99.90;;;;;;5095249;28;20024;-75
2022/06/27 03:06:26;;;;;;;1.85;0.88;;;16.30;99.90;;;;;;5076572;28;20081;-75
2022/06/27 03:08:52;;;;;;;3.38;1.02;;;16.30;99.90;;;;;;5095332;28;20361;-76
2022/06/27 03:11:21;;;;;;;3.70;0.90;;;16.30;99.90;;;;;;5095418;28;20028;-75
2022/06/27 03:13:47;;;;;;;2.45;1.13;;;16.30;99.90;;;;;;5094845;28;20066;-75
2022/06/27 03:16:14;;;;;;;2.95;1.40;;;16.20;99.90;;;;;;5095602;28;20025;-75
2022/06/27 03:18:40;;;;;;;2.90;1.17;;;16.20;99.90;;;;;;5076474;28;20534;-75
2022/06/27 03:21:06;;;;;;;2.90;1.58;;;16.10;99.90;;;;;;5094694;28;20031;-75
2022/06/27 03:23:32;;;;;;;5.55;2.17;;;16.00;99.90;;;;;;5095146;28;20376;-75
2022/06/27 03:25:58;;;;;;;4.30;1.48;;;16.00;99.90;;;;;;5094520;28;20020;-75
2022/06/27 03:28:24;;;;;;;8.68;1.83;;;15.90;99.90;;;;;;5094518;28;20401;-74
2022/06/27 03:30:50;;;;;;;4.85;1.60;;;15.90;99.90;;;;;;5094755;28;20020;-73
2022/06/27 03:33:16;;;;;;;4.20;1.00;;;15.90;99.90;;;;;;5094271;28;20016;-74
2022/06/27 03:35:43;;;;;;;2.30;1.25;;;15.90;99.90;;;;;;5094419;28;20066;-74
2022/06/27 03:38:12;;;;;;;6.13;1.83;;;15.80;99.90;;;;;;5094182;28;20032;-74
2022/06/27 03:40:38;;;;;;;1.80;0.93;;;15.80;99.90;;;;;;5076109;28;20069;-74
2022/06/27 03:43:03;;;;;;;3.90;1.10;;;15.70;99.90;;;;;;5088961;28;21331;-74
2022/06/27 03:47:59;;;;;;;7.53;1.73;;;15.60;99.90;;;;;;5090902;28;20105;-76
2022/06/27 03:50:26;;;;;;;4.53;1.80;;;15.60;99.90;;;;;;5093762;28;20103;-76
2022/06/27 03:52:53;;;;;;;3.50;1.23;;;15.60;99.90;;;;;;5094162;28;20028;-76
2022/06/27 03:55:19;;;;;;;2.85;1.17;;;15.50;99.90;;;;;;5093445;28;20016;-77
2022/06/27 03:57:56;;;;;;;3.08;1.27;;;16.00;99.90;;;;;;5075852;28;20389;-77
2022/06/27 04:00:26;;;;;;;3.33;1.23;;;15.40;99.90;;;;;;5094652;28;20027;-77
2022/06/27 04:02:52;;;;;;;8.23;2.22;;;15.30;99.90;;;;;;5075786;28;20020;-77
2022/06/27 04:05:18;;;;;;;4.00;0.82;;;15.30;99.90;;;;;;5075721;28;20504;-77
2022/06/27 04:07:44;;;;;;;2.80;1.55;;;15.30;99.90;;;;;;5094485;28;20485;-77
2022/06/27 04:10:12;;;;;;;5.13;1.20;;;15.30;99.90;;;;;;5075949;28;20425;-78
2022/06/27 04:12:40;;;;;;;3.55;1.67;;;15.30;99.90;;;;;;5076943;28;20012;-78
2022/06/27 04:15:07;;;;;;;4.35;2.25;;;15.40;99.90;;;;;;5094319;28;20570;-79
2022/06/27 04:17:32;;;;;;;2.10;1.45;;;15.30;99.90;;;;;;5093980;28;20549;-79
2022/06/27 04:19:59;;;;;;;5.95;1.38;;;15.90;99.90;;;;;;5076222;28;20048;-78
2022/06/27 04:22:24;;;;;;;7.05;1.65;;;15.50;99.90;;;;;;5094867;28;20499;-78
2022/06/27 04:24:50;;;;;;;5.60;2.00;;;15.70;99.90;;;;;;5076129;28;20027;-78
2022/06/27 04:27:17;;;;;;;2.38;1.42;;;15.80;99.90;;;;;;5076063;28;20374;-78
2022/06/27 04:29:43;;;;;;;5.32;1.80;;;16.10;99.90;;;;;;5075531;28;20024;-78
2022/06/27 04:32:10;;;;;;;3.78;2.08;;;16.20;99.90;;;;;;5075399;28;20066;-77
2022/06/27 04:34:36;;;;;;;2.20;1.90;;;16.10;99.90;;;;;;5075470;28;20020;-77
2022/06/27 04:37:03;;;;;;;3.13;2.08;;;16.30;99.90;;;;;;5075102;28;20020;-78
2022/06/27 04:39:30;;;;;;;3.08;2.15;;;16.50;99.90;;;;;;5075378;28;20031;-78
2022/06/27 04:41:56;;;;;;;2.63;1.85;;;17.90;99.90;;;;;;5093692;28;20136;-78
2022/06/27 04:44:22;;;;;;;5.82;2.25;;;16.90;99.90;;;;;;5075368;28;20051;-78
2022/06/27 04:46:47;;;;;;;4.80;1.75;;;17.00;99.90;;;;;;5074955;28;20097;-78
2022/06/27 04:49:14;;;;;;;7.20;1.70;;;17.10;99.90;;;;;;5093422;28;20020;-78
2022/06/27 04:51:41;;;;;;;4.35;1.73;;;17.10;99.90;;;;;;5093411;28;20019;-77
2022/06/27 04:54:08;;;;;;;6.57;2.47;;;17.10;99.90;;;;;;5093388;28;20048;-78
2022/06/27 04:56:35;;;;;;;4.53;1.75;;;17.10;99.90;;;;;;5093447;28;20080;-78
2022/06/27 04:59:01;;;;;;;2.65;1.55;;;17.00;99.90;;;;;;5093521;28;20050;-78
2022/06/27 05:01:27;;;;;;;3.45;1.85;;;17.00;99.90;;;;;;5075350;28;20024;-78
2022/06/27 05:03:53;;;;;;;8.43;1.80;;;17.80;99.90;;;;;;5075364;28;20392;-78
2022/06/27 05:06:18;;;;;;;4.18;1.73;;;17.30;99.90;;;;;;5093129;28;20020;-76
2022/06/27 05:08:44;;;;;;;3.25;2.03;;;16.90;99.90;;;;;;5075115;28;20056;-76
2022/06/27 05:11:10;;;;;;;4.47;1.73;;;17.00;99.90;;;;;;5097175;28;20016;-77
2022/06/27 05:13:35;;;;;;;2.13;1.38;;;17.00;99.90;;;;;;5079002;28;20500;-77
2022/06/27 05:16:03;;;;;;;4.80;1.70;;;17.10;99.90;;;;;;5097596;28;20111;-77
2022/06/27 05:18:29;;;;;;;6.20;1.73;;;17.00;99.90;;;;;;5079321;28;20032;-78
2022/06/27 05:20:55;;;;;;;5.65;2.03;;;16.90;99.90;;;;;;5098000;28;20266;-78
2022/06/27 05:23:21;;;;;;;3.80;2.15;;;16.90;99.90;;;;;;5097832;28;20154;-78
2022/06/27 05:25:47;;;;;;;3.80;1.52;;;16.90;99.90;;;;;;5097403;28;20048;-77
2022/06/27 05:28:12;;;;;;;5.78;2.15;;;17.00;99.90;;;;;;5079139;28;20016;-77
2022/06/27 05:30:38;;;;;;;5.13;1.85;;;18.10;99.90;;;;;;5097915;28;20020;-77
2022/06/27 05:33:03;;;;;;;3.83;1.65;;;17.20;99.90;;;;;;5097378;28;20095;-77
2022/06/27 05:35:29;;;;;;;4.35;2.15;;;17.20;99.90;;;;;;5099667;28;20069;-78
2022/06/27 05:37:55;;;;;;;4.05;1.77;;;17.40;99.90;;;;;;5098046;28;20020;-78
2022/06/27 05:40:22;;;;;;;3.08;1.65;;;17.40;99.90;;;;;;5096879;28;20070;-78
2022/06/27 05:42:48;;;;;;;4.95;2.10;;;17.50;99.90;;;;;;5096854;28;20028;-78
2022/06/27 05:45:15;;;;;;;4.32;2.10;;;17.60;99.90;;;;;;5096848;28;20024;-78
2022/06/27 05:47:41;;;;;;;7.10;2.60;;;18.20;99.90;;;;;;5096463;28;20119;-78
2022/06/27 05:50:08;;;;;;;1.98;1.60;;;17.80;99.90;;;;;;5078399;28;20477;-78
2022/06/27 05:52:34;;;;;;;7.00;2.50;;;17.90;99.90;;;;;;5096882;28;20073;-78
2022/06/27 05:54:59;;;;;;;1.77;1.52;;;18.00;99.90;;;;;;5079009;28;20433;-78
2022/06/27 05:57:28;;;;;;;8.02;2.47;;;18.00;99.90;;;;;;5078790;28;20111;-78
2022/06/27 05:59:55;;;;;;;3.10;1.85;;;18.10;99.90;;;;;;5078637;28;20565;-78
2022/06/27 06:02:21;;;;;;;8.23;3.13;;;18.10;99.90;;;;;;5078804;28;20093;-78
2022/06/27 06:04:48;;;;;;;4.72;2.20;;;18.10;99.90;;;;;;5096294;28;20532;-78
2022/06/27 06:07:14;;;;;;;6.75;2.45;;;18.10;99.90;;;;;;5096250;28;20099;-78
2022/06/27 06:09:41;;;;;;;9.23;2.95;;;18.00;99.90;;;;;;5096935;28;20073;-78
2022/06/27 06:12:09;;;;;;;7.43;2.60;;;18.00;99.90;;;;;;5078894;28;20106;-78
2022/06/27 06:14:35;;;;;;;5.28;3.22;;;18.00;99.90;;;;;;5078813;28;20016;-78
2022/06/27 06:17:01;;;;;;;7.55;4.00;;;17.90;99.90;;;;;;5078732;28;20066;-79
2022/06/27 06:19:28;;;;;;;9.75;2.85;;;18.00;99.90;;;;;;5078849;28;20031;-79
2022/06/27 06:21:53;;;;;;;7.28;2.83;;;18.00;99.90;;;;;;5078281;28;20030;-79
2022/06/27 06:24:19;;;;;;;3.33;2.25;;;18.00;99.90;;;;;;5078566;28;20028;-79
2022/06/27 06:26:45;;;;;;;5.85;2.33;;;18.00;99.90;;;;;;5096840;28;20481;-78
2022/06/27 06:29:15;;;;;;;5.75;2.47;;;17.90;99.90;;;;;;5078487;28;20115;-78
2022/06/27 06:31:43;;;;;;;8.52;3.25;;;17.90;99.90;;;;;;5096552;28;20081;-78
2022/06/27 06:34:11;;;;;;;9.45;3.17;;;18.00;99.90;;;;;;5096742;28;20012;-78
2022/06/27 06:36:38;;;;;;;6.03;2.58;;;18.20;99.90;;;;;;5097068;28;20077;-79
2022/06/27 06:39:04;;;;;;;8.75;3.50;;;18.20;99.90;;;;;;5096765;28;20503;-78
2022/06/27 06:41:31;;;;;;;4.32;3.05;;;18.10;99.90;;;;;;5095771;28;20078;-78
2022/06/27 06:43:59;;;;;;;6.82;2.55;;;18.20;99.90;;;;;;5095997;28;20031;-78
2022/06/27 06:46:26;;;;;;;6.80;2.97;;;18.30;99.90;;;;;;5095604;28;20024;-77
2022/06/27 06:49:05;;;;;;;7.43;2.92;;;18.40;99.90;;;;;;5097862;28;20368;-78
2022/06/27 06:51:34;;;;;;;6.68;3.22;;;18.30;99.90;;;;;;5096211;28;20104;-77
2022/06/27 06:54:00;;;;;;;10.80;3.60;;;18.50;99.90;;;;;;5161765;22;20131;-74
2022/06/27 06:56:28;;;;;;;6.95;3.03;;;18.30;99.90;;;;;;5095563;28;20058;-74
2022/06/27 06:58:54;;;;;;;9.17;3.57;;;18.50;99.90;;;;;;5095090;28;20012;-74
2022/06/27 07:01:20;;;;;;;5.82;3.55;;;18.50;99.90;;;;;;5095070;28;20530;-74
2022/06/27 07:03:48;;;;;;;9.00;3.80;;;18.60;99.90;;;;;;5094914;28;20028;-74
2022/06/27 07:06:15;;;;;;;9.82;4.30;;;18.70;99.90;;;;;;5094907;28;20430;-75
2022/06/27 07:08:41;;;;;;;7.88;2.92;;;18.70;99.90;;;;;;5076855;28;20039;-74
2022/06/27 07:11:07;;;;;;;7.93;3.25;;;18.80;99.90;;;;;;5094848;28;20373;-74
2022/06/27 07:13:33;;;;;;;5.80;3.08;;;18.90;99.90;;;;;;5095129;28;20023;-74
2022/06/27 07:15:58;;;;;;;5.63;3.03;;;18.90;99.90;;;;;;5094742;28;20032;-74
2022/06/27 07:18:25;;;;;;;7.72;4.40;;;19.00;99.90;;;;;;5094725;28;20033;-74
2022/06/27 07:20:52;;;;;;;7.07;3.10;;;19.00;99.90;;;;;;5094607;28;20034;-74
2022/06/27 07:23:19;;;;;;;6.22;3.70;;;19.00;99.90;;;;;;5094680;28;20043;-74
2022/06/27 07:25:45;;;;;;;8.07;3.38;;;19.00;99.90;;;;;;5113088;22;20075;-89
2022/06/27 07:28:11;;;;;;;4.65;2.67;;;19.10;99.90;;;;;;5074916;28;20020;-89
2022/06/27 07:30:37;;;;;;;4.40;2.88;;;19.10;99.90;;;;;;5075008;28;20020;-88
2022/06/27 07:33:03;;;;;;;4.57;3.28;;;19.20;99.90;;;;;;5073839;28;20044;-89
2022/06/27 07:35:30;;;;;;;9.75;4.05;;;21.70;99.90;;;;;;5074712;28;20020;-89
2022/06/27 07:37:55;;;;;;;6.55;3.58;;;20.40;99.90;;;;;;5074889;28;20024;-89
2022/06/27 07:40:23;;;;;;;12.02;4.18;;;19.30;99.90;;;;;;5074537;28;20082;-88
2022/06/27 07:42:51;;;;;;;10.32;3.47;;;19.30;99.90;;;;;;5075804;28;20020;-89
2022/06/27 07:45:18;;;;;;;7.78;3.97;;;20.50;99.90;;;;;;5075334;28;20469;-89
2022/06/27 07:47:44;;;;;;;8.35;4.15;;;19.40;99.90;;;;;;5074210;28;20111;-89
2022/06/27 07:50:11;;;;;;;8.55;4.35;;;19.30;99.90;;;;;;5075055;28;20031;-88
2022/06/27 07:55:23;;;;;;;8.48;4.00;;;19.50;99.90;;;;;;5075386;28;20048;-88
2022/06/27 07:57:52;;;;;;;9.10;4.10;;;19.70;99.90;;;;;;5073668;28;20021;-89
2022/06/27 08:00:18;;;;;;;11.27;3.83;;;19.70;99.90;;;;;;5074886;28;20118;-89
2022/06/27 08:02:44;;;;;;;9.32;4.57;;;19.60;99.90;;;;;;5073945;28;20508;-89
2022/06/27 08:05:10;;;;;;;10.13;4.00;;;19.80;99.90;;;;;;5073753;28;20024;-89
2022/06/27 08:07:37;;;;;;;6.95;4.47;;;19.80;99.90;;;;;;5073396;28;20032;-89
2022/06/27 08:10:04;;;;;;;6.43;4.05;;;19.80;99.90;;;;;;5073493;28;20389;-89
2022/06/27 08:12:31;;;;;;;6.85;3.58;;;19.80;99.90;;;;;;5073745;28;20025;-89
2022/06/27 08:14:56;;;;;;;6.80;3.50;;;19.80;99.90;;;;;;5073633;28;20017;-89
2022/06/27 08:17:23;;;;;;;5.57;3.08;;;19.50;99.90;;;;;;5073576;28;20396;-89
2022/06/27 08:19:50;;;;;;;10.60;3.95;;;19.80;99.90;;;;;;5075162;28;20484;-87
2022/06/27 08:22:15;;;;;;;7.30;3.70;;;21.10;99.90;;;;;;5074926;28;20035;-88
2022/06/27 08:24:44;;;;;;;6.38;2.92;;;20.60;99.90;;;;;;5074625;28;20044;-88
2022/06/27 08:27:10;;;;;;;6.18;3.10;;;20.00;99.90;;;;;;5075072;28;20419;-88
2022/06/27 08:29:37;;;;;;;4.45;2.05;;;20.30;99.90;;;;;;5073474;28;20017;-89
2022/06/27 08:32:03;;;;;;;6.68;2.42;;;20.30;99.90;;;;;;5073264;28;20028;-88
2022/06/27 08:34:30;;;;;;;9.18;3.42;;;20.30;99.90;;;;;;5073254;28;20020;-89
2022/06/27 08:36:55;;;;;;;4.53;2.20;;;20.30;99.90;;;;;;5072908;28;20024;-88
2022/06/27 08:39:21;;;;;;;8.68;2.88;;;20.30;99.90;;;;;;5073107;28;20082;-88
2022/06/27 08:41:47;;;;;;;5.30;2.50;;;20.50;99.90;;;;;;5073015;28;20023;-88
2022/06/27 08:44:14;;;;;;;4.40;1.65;;;20.60;99.90;;;;;;5072732;28;20551;-88
2022/06/27 08:46:47;;;;;;;3.75;1.77;;;20.70;99.90;;;;;;5074686;28;20381;-88
2022/06/27 08:49:14;;;;;;;7.82;1.85;;;20.70;99.90;;;;;;5075579;28;20020;-88
2022/06/27 08:51:42;;;;;;;3.97;1.98;;;20.70;99.90;;;;;;5072730;28;20500;-88
2022/06/27 08:54:08;;;;;;;3.25;1.80;;;22.30;99.90;;;;;;5072770;28;20162;-88
2022/06/27 08:56:34;;;;;;;6.22;1.38;;;20.70;99.90;;;;;;5072787;28;20070;-88
2022/06/27 08:59:00;;;;;;;8.75;1.50;;;20.70;99.90;;;;;;5073052;28;20024;-88
2022/06/27 09:01:29;;;;;;;3.75;1.20;;;20.70;99.90;;;;;;5072821;28;20024;-88
2022/06/27 09:04:01;;;;;;;3.85;1.30;;;20.60;99.90;;;;;;5073075;28;20082;-88
2022/06/27 09:06:33;;;;;;;4.40;1.90;;;20.60;99.90;;;;;;5073525;28;20028;-88
2022/06/27 09:09:08;;;;;;;6.65;1.42;;;20.50;99.90;;;;;;5072675;28;20024;-88
2022/06/27 09:11:36;;;;;;;4.55;2.00;;;20.70;99.90;;;;;;5072959;28;20031;-88
2022/06/27 09:14:03;;;;;;;5.65;2.40;;;20.50;99.90;;;;;;5074186;28;20021;-88
2022/06/27 09:16:29;;;;;;;5.38;2.28;;;20.60;99.90;;;;;;5072751;28;20032;-88
2022/06/27 09:18:55;;;;;;;4.60;2.30;;;20.60;99.90;;;;;;5073543;28;20368;-88
2022/06/27 09:21:22;;;;;;;8.02;2.75;;;21.20;99.90;;;;;;5072404;28;20021;-89
2022/06/27 09:23:53;;;;;;;6.15;2.83;;;20.60;99.90;;;;;;5072479;28;20098;-88
2022/06/27 09:26:36;;;;;;;7.45;3.13;;;22.20;99.90;;;;;;5072409;28;20028;-89
2022/06/27 09:29:03;;;;;;;5.15;2.95;;;20.90;99.90;;;;;;5072631;28;20115;-88
2022/06/27 09:31:32;;;;;;;8.87;3.27;;;20.60;99.90;;;;;;5072787;28;20040;-88
2022/06/27 09:34:03;;;;;;;6.25;3.05;;;23.30;99.90;;;;;;5072705;28;20029;-88
2022/06/27 09:36:31;;;;;;;3.60;2.10;;;21.70;99.90;;;;;;5073969;28;20025;-88
2022/06/27 09:38:59;;;;;;;8.70;3.45;;;20.40;99.90;;;;;;5074120;28;20025;-88
2022/06/27 09:41:30;;;;;;;6.15;2.50;;;20.60;99.90;;;;;;5074322;28;20456;-89
2022/06/27 09:44:10;;;;;;;6.50;2.10;;;20.50;99.90;;;;;;5073060;28;20455;-88
2022/06/27 09:46:42;;;;;;;5.85;2.28;;;20.60;99.90;;;;;;5072831;28;20025;-88
2022/06/27 09:49:12;;;;;;;3.95;1.83;;;22.00;99.90;;;;;;5072808;28;20021;-88
2022/06/27 09:51:39;;;;;;;6.43;1.75;;;20.70;99.90;;;;;;5072573;28;20074;-88
2022/06/27 09:54:08;;;;;;;4.53;1.60;;;20.70;99.90;;;;;;5072530;28;20059;-88
2022/06/27 09:56:37;;;;;;;3.38;1.33;;;20.90;99.90;;;;;;5075932;28;20090;-88
2022/06/27 09:59:03;;;;;;;;;;;21.20;99.90;;;;;;5077798;28;20029;-87
2022/06/27 10:01:30;;;;;;;6.03;1.23;;;21.30;99.90;;;;;;5077265;28;19912;-88
2022/06/27 10:03:57;;;;;;;3.80;1.40;;;24.40;99.90;;;;;;5077841;28;20389;-88
2022/06/27 10:06:25;;;;;;;5.35;1.20;;;21.50;99.90;;;;;;5076007;28;20039;-88
2022/06/27 10:08:51;;;;;;;3.10;1.10;;;21.60;99.90;;;;;;5077972;28;20024;-88
2022/06/27 10:11:17;;;;;;;4.00;0.90;;;21.80;99.90;;;;;;5076549;28;20025;-88
2022/06/27 10:13:43;;;;;;;4.40;0.70;;;21.90;99.90;;;;;;5068139;28;20028;-88
2022/06/27 10:16:12;;;;;;;3.13;0.50;;;21.80;99.90;;;;;;5068955;28;20020;-88
2022/06/27 10:19:03;;;;;;;2.58;1.10;;;24.50;99.90;;;;;;5075752;28;20063;-88
2022/06/27 10:21:42;;;;;;;4.07;0.77;;;21.50;99.90;;;;;;5077402;28;20095;-89
2022/06/27 10:24:26;;;;;;;2.17;0.40;;;21.40;99.90;;;;;;5076821;28;20102;-88
2022/06/27 10:26:54;;;;;;;3.33;0.75;;;21.30;99.90;;;;;;5075910;28;20035;-88
2022/06/27 10:29:38;;;;;;;3.77;0.40;;;21.20;99.90;;;;;;5077387;28;20098;-88
2022/06/27 10:32:09;;;;;;;3.78;0.10;;;21.20;99.90;;;;;;5075163;28;20369;-87
2022/06/27 10:34:38;;;;;;;2.75;0.43;;;21.20;99.90;;;;;;5074365;28;20016;-88
2022/06/27 10:37:25;;;;;;;3.15;0.50;;;21.40;99.90;;;;;;5075989;28;20033;-88
2022/06/27 10:39:51;;;;;;;2.22;0.47;;;21.20;99.90;;;;;;5075754;28;20039;-88
2022/06/27 10:42:48;;;;;;;2.03;1.05;;;21.20;99.90;;;;;;5076961;28;20055;-89
2022/06/27 10:45:19;;;;;;;5.07;1.50;;;21.10;99.90;;;;;;5075947;28;20024;-88
2022/06/27 10:47:58;;;;;;;1.67;0.90;;;21.10;99.90;;;;;;5075807;28;20032;-88
2022/06/27 10:50:26;;;;;;;4.55;1.42;;;20.90;99.90;;;;;;5075832;28;20021;-88
2022/06/27 10:53:29;;;;;;;2.58;1.55;;;20.80;99.90;;;;;;5075248;28;20020;-88
2022/06/27 10:55:54;;;;;;;4.45;2.03;;;20.70;99.90;;;;;;5075431;28;20021;-88
2022/06/27 10:58:23;;;;;;;3.28;1.25;;;20.60;99.90;;;;;;5075852;28;20028;-88
2022/06/27 11:00:49;;;;;;;3.45;1.85;;;20.40;99.90;;;;;;5075465;28;20024;-88
2022/06/27 11:03:22;;;;;;;3.17;1.40;;;20.30;99.90;;;;;;5074801;28;20024;-89
2022/06/27 11:05:58;;;;;;;3.92;1.50;;;20.00;99.90;;;;;;5075838;28;20473;-89
2022/06/27 11:08:24;;;;;;;12.98;1.80;;;20.20;99.90;;;;;;5075820;28;20035;-89
2022/06/27 11:10:51;;;;;;;4.80;1.15;;;20.30;99.90;;;;;;5075414;28;20500;-89
2022/06/27 11:13:39;;;;;;;4.25;1.52;;;20.10;99.90;;;;;;5076124;28;20025;-89
2022/06/27 11:16:07;;;;;;;6.28;1.88;;;20.10;99.90;;;;;;5075157;28;20055;-89
2022/06/27 11:18:43;;;;;;;7.13;1.88;;;20.10;99.90;;;;;;5075283;28;20029;-89
2022/06/27 11:21:11;;;;;;;3.55;1.80;;;20.10;99.90;;;;;;5075599;28;20036;-88
2022/06/27 11:24:00;;;;;;;4.45;1.70;;;20.20;99.90;;;;;;5076386;28;20048;-89
2022/06/27 11:26:33;;;;;;;7.05;2.65;;;20.20;99.90;;;;;;5074579;28;20392;-89
2022/06/27 11:32:06;;;;;;;3.63;1.38;;;20.30;99.90;;;;;;5075862;28;20500;-89
2022/06/27 11:34:35;;;;;;;6.72;1.67;;;20.30;99.90;;;;;;5075137;28;20024;-88
2022/06/27 11:37:10;;;;;;;2.35;1.05;;;20.30;99.90;;;;;;5074021;28;20027;-89
2022/06/27 11:39:35;;;;;;;2.05;1.00;;;20.40;99.90;;;;;;5073861;28;20040;-88
2022/06/27 11:42:12;;;;;;;2.22;0.68;;;20.40;99.90;;;;;;5074156;28;20025;-88
2022/06/27 11:45:05;;;;;;;4.05;0.80;;;20.50;99.90;;;;;;5077217;28;20020;-88
2022/06/27 11:47:34;;;;;;;2.92;2.10;;;20.50;99.90;;;;;;5074953;28;20496;-89
2022/06/27 11:50:32;;;;;;;2.63;1.25;;;20.60;99.90;;;;;;5074617;28;20043;-89
2022/06/27 11:53:01;;;;;;;;;;;20.60;99.90;;;;;;5071601;28;20024;-89
2022/06/27 11:55:27;;;;;;;6.53;1.88;;;20.70;99.90;;;;;;5075582;28;19908;-89
2022/06/27 11:58:00;;;;;;;7.05;2.25;;;24.00;99.90;;;;;;5075813;28;20494;-89
2022/06/27 12:00:33;;;;;;;6.50;2.88;;;20.80;99.90;;;;;;5075854;28;20053;-89
2022/06/27 12:02:58;;;;;;;4.13;2.10;;;20.80;99.90;;;;;;5074209;28;20020;-89
2022/06/27 12:05:25;;;;;;;7.45;2.65;;;20.80;99.90;;;;;;5075098;28;20029;-89
2022/06/27 12:07:55;;;;;;;4.88;1.80;;;20.60;99.90;;;;;;5073946;28;20025;-89
2022/06/27 12:10:36;;;;;;;9.98;2.03;;;20.40;99.90;;;;;;5073824;28;20028;-89
2022/06/27 12:13:29;;;;;;;4.32;1.80;;;20.20;99.90;;;;;;5073474;28;20031;-89
2022/06/27 12:16:00;;;;;;;4.25;2.08;;;20.00;99.90;;;;;;5074492;28;20397;-88
2022/06/27 12:18:51;;;;;;;4.05;1.88;;;19.90;99.90;;;;;;5073831;28;20083;-88
2022/06/27 12:21:18;;;;;;;4.55;1.60;;;19.80;99.90;;;;;;5076483;28;20473;-89
2022/06/27 12:23:44;;;;;;;3.90;1.98;;;17.80;99.90;;;;;;5076432;28;20016;-88
2022/06/27 12:26:10;;;;;;;5.88;1.80;;;19.50;99.90;;;;;;5076330;28;20016;-88
2022/06/27 12:28:36;;;;;;;5.45;1.48;;;19.40;99.90;;;;;;5077073;28;20027;-88
2022/06/27 12:31:02;;;;;;;6.53;1.80;;;21.70;99.90;;;;;;5078626;28;20382;-88
2022/06/27 12:33:27;;;;;;;3.03;0.90;;;20.20;99.90;;;;;;5078894;28;20038;-88
2022/06/27 12:35:53;;;;;;;6.93;1.10;;;21.80;99.90;;;;;;5079488;28;20540;-88
2022/06/27 12:38:19;;;;;;;5.20;1.30;;;18.90;99.90;;;;;;5077080;28;20052;-88
2022/06/27 12:40:45;;;;;;;6.28;0.95;;;20.00;99.90;;;;;;5076329;28;20027;-89
2022/06/27 12:43:11;;;;;;;6.00;0.35;;;18.80;99.90;;;;;;5076429;28;20020;-89
2022/06/27 12:45:37;;;;;;;5.43;0.22;;;18.70;99.90;;;;;;5074298;28;20031;-90
2022/06/27 12:48:05;;;;;;;3.03;0.40;;;19.10;99.90;;;;;;5075770;28;20107;-89
2022/06/27 12:50:31;;;;;;;2.60;0.22;;;18.60;99.90;;;;;;5076581;28;20028;-89
2022/06/27 12:53:11;;;;;;;2.30;0.32;;;18.50;99.90;;;;;;5076876;28;20025;-89
2022/06/27 12:55:42;;;;;;;1.92;0.25;;;18.40;99.90;;;;;;5076161;28;20081;-89
2022/06/27 12:58:08;;;;;;;4.97;0.17;;;18.20;99.90;;;;;;5075768;28;20020;-88
2022/06/27 13:00:41;;;;;;;1.95;0.15;;;18.70;99.90;;;;;;5074760;28;20023;-89